Honor, MI

3:56 AM EDT on September 02, 2014 (GMT -0400)
PlatteLakeLodge.com | Change Station
CLOSE
Current Station
Personal Weather Station
Location: Beulah, MI
Elevation: 607 ft
Nearby Weather Stations

Elev 607 ft 44.68 °N, 86.07 °W | Updated 1 second ago

Clear
Clear
63.0 °F
Feels Like 63.0 °F
N
1.0
Wind Variable Wind from SSE
Gusts 2.0 mph

Today
High -- | Low -- °F
--% Chance of Precip.
Yesterday
High -- | Low -- °F
Precip. -- in
7:07 AM 8:19 PM
Waxing Crescent, 49% visible
Pressure 29.80 in
Visibility 10.0 miles
Clouds Clear
Dew Point 61 °F
Humidity 93%
Rainfall 0.00 in
Snow Depth Not available.
UV 0 out of 12
Pollen 7.30 out of 12
Ozone Good
PM2.5 Good
Flu Activity Not available.
METAR KFKS 020731Z AUTO 31004KT 10SM CLR 19/16 A2980 RMK AO2 T01900157

More Conditions Fewer Conditions

Pressure 29.80 in
Visibility 10.0 miles
Clouds Clear
Dew Point 61 °F
Humidity 93%
Rainfall 0.00 in
Snow Depth Not available.
UV 0 out of 12
Pollen 7.30 out of 12
Ozone Good
PM2.5 Good
Flu Activity Not available.
METAR KFKS 020731Z AUTO 31004KT 10SM CLR 19/16 A2980 RMK AO2 T01900157

More Conditions Fewer Conditions

Nowcast | as of 3:00 am EDT on September 2, 2014

At 4 am...partly cloudy. Patchy fog. Temperature 63. West winds 5 mph. At 6 am...partly cloudy. Patchy fog. Temperature 60. Light winds. At 8 am...mostly clear. Patchy fog. Temperature 60. Light winds. At 10 am...mostly clear. Temperature 65. West winds 6 mph.

×

10-Day Weather Forecast

Almanac

Astronomy

Sep. 02, 2014 Rise Set
Actual Time 7:07 AM EDT 8:19 PM EDT
Civil Twilight 6:37 AM EDT 8:49 PM EDT
Nautical Twilight 6:01 AM EDT 9:25 PM EDT
Astronomical Twilight 5:23 AM EDT 10:03 PM EDT
Moon 3:09 PM EDT 12:04 AM EDT
Length of Visible Light 14h 11m
Length of Day
13h 11m
Tomorrow will be 3m 0s shorter.
Waxing Crescent, 49% of the Moon is Illuminated
Today
Waxing Crescent
Sep 2
First Quarter
Sep 8
Full
Sep 15
Last Quarter
Sep 24
New

Today's Extremes

State Highs State Lows

Community

WunderPhotos

Upload Photos

1,749,589 photos uploaded!

WunderBlogs® & News

Nearby

Air Quality

  Air Quality AQ Index Pollutant
Yesterday Good
OZONE
Yesterday Good
PM2.5
Current Good
PM2.5
Current Good
OZONE
Tuesday Good
OZONE
Tuesday Good
PM2.5

Snow Depth

Station Depth Elevation
No new snow has been reported.

Earthquake Activity

City Distance Mag. Time & Date
No recent earthquake activity has been reported nearby.
Minimum magnitude displayed is 2.5.

Coastal Water Temperatures

Place Temperature
No Stations Reporting

Nearby Weather Stations